Time;durP1;ratioP1;P1;durP2;ratioP2;P2;SDS_P1;SDS_P2;PMS_P1;PMS_P2;Temp;Humidity;BMP_temperature;BMP_pressure;BME280_temperature;BME280_humidity;BME280_pressure;Samples;Min_cycle;Max_cycle;Signal;HPM_P1;HPM_P2
2023/05/14 00:01:39;;;;;;;5.10;3.38;;;25.00;99.90;;;;;;5074072;28;20029;-54
2023/05/14 00:04:05;;;;;;;4.22;3.20;;;25.00;99.90;;;;;;5073943;28;20033;-54
2023/05/14 00:06:31;;;;;;;5.20;3.13;;;25.00;99.90;;;;;;5073978;28;20126;-54
2023/05/14 00:08:57;;;;;;;5.38;3.33;;;25.00;99.90;;;;;;5074239;28;20025;-54
2023/05/14 00:11:23;;;;;;;6.07;3.50;;;25.00;99.90;;;;;;5074067;28;20029;-54
2023/05/14 00:13:49;;;;;;;4.32;3.00;;;25.00;99.90;;;;;;5074170;28;20422;-54
2023/05/14 00:16:15;;;;;;;4.43;2.90;;;25.00;99.90;;;;;;5073597;28;20116;-53
2023/05/14 00:18:41;;;;;;;5.95;3.60;;;25.00;99.90;;;;;;5073991;28;20354;-52
2023/05/14 00:21:07;;;;;;;4.95;3.40;;;24.90;99.90;;;;;;5073911;28;20109;-53
2023/05/14 00:23:32;;;;;;;5.30;3.17;;;25.00;99.90;;;;;;5073765;28;20032;-54
2023/05/14 00:25:58;;;;;;;6.90;3.80;;;24.90;99.90;;;;;;5072647;28;20033;-54
2023/05/14 00:28:24;;;;;;;4.78;3.53;;;24.90;99.90;;;;;;5073199;28;20105;-54
2023/05/14 00:30:50;;;;;;;4.57;3.30;;;24.90;99.90;;;;;;5073090;28;20021;-54
2023/05/14 00:33:16;;;;;;;6.20;4.05;;;24.90;99.90;;;;;;5073218;28;20249;-55
2023/05/14 00:35:42;;;;;;;7.32;3.65;;;24.90;99.90;;;;;;5073339;28;20012;-54
2023/05/14 00:38:08;;;;;;;4.70;3.53;;;24.90;99.90;;;;;;5072054;28;20544;-55
2023/05/14 00:40:34;;;;;;;6.75;3.20;;;24.90;99.90;;;;;;5073389;28;20499;-54
2023/05/14 00:42:59;;;;;;;5.00;3.90;;;24.90;99.90;;;;;;5073536;28;20033;-55
2023/05/14 00:45:26;;;;;;;6.63;3.35;;;24.90;99.90;;;;;;5073241;28;20040;-55
2023/05/14 00:47:52;;;;;;;4.80;3.47;;;24.90;99.90;;;;;;5073254;28;20020;-54
2023/05/14 00:50:19;;;;;;;5.70;3.70;;;24.80;99.90;;;;;;5073422;28;20028;-54
2023/05/14 00:52:46;;;;;;;10.13;3.50;;;24.80;99.90;;;;;;5073206;28;20289;-54
2023/05/14 00:55:15;;;;;;;8.05;3.65;;;24.90;99.90;;;;;;5073286;28;20060;-54
2023/05/14 00:57:41;;;;;;;6.05;3.65;;;24.90;99.90;;;;;;5073051;28;20423;-54
2023/05/14 01:00:08;;;;;;;4.05;2.95;;;24.80;99.90;;;;;;5071873;28;20044;-54
2023/05/14 01:02:34;;;;;;;7.28;3.88;;;24.80;99.90;;;;;;5031621;23;20104;-49
2023/05/14 01:05:00;;;;;;;5.72;3.22;;;24.80;99.90;;;;;;5013656;28;20026;-49
2023/05/14 01:07:41;;;;;;;5.97;3.85;;;24.80;99.90;;;;;;5013377;28;20029;-49
2023/05/14 01:10:20;;;;;;;6.68;3.80;;;24.80;99.90;;;;;;5013411;28;20021;-49
2023/05/14 01:13:34;;;;;;;6.43;3.50;;;24.80;99.90;;;;;;5013265;28;20030;-49
2023/05/14 01:16:02;;;;;;;4.40;3.42;;;24.80;99.90;;;;;;4977137;28;20038;-49
2023/05/14 01:18:31;;;;;;;7.15;3.58;;;24.80;99.90;;;;;;5012031;28;20021;-49
2023/05/14 01:20:57;;;;;;;5.75;3.50;;;24.80;99.90;;;;;;5013236;28;20029;-49
2023/05/14 01:23:22;;;;;;;5.20;3.28;;;24.80;99.90;;;;;;5011709;28;20018;-49
2023/05/14 01:25:48;;;;;;;4.57;3.25;;;24.80;99.90;;;;;;5012998;28;20041;-49
2023/05/14 01:28:31;;;;;;;4.85;3.03;;;24.80;99.90;;;;;;5012800;28;20018;-49
2023/05/14 01:31:10;;;;;;;4.63;3.20;;;24.80;99.90;;;;;;5012928;28;20087;-49
2023/05/14 01:33:39;;;;;;;5.38;3.15;;;24.70;99.90;;;;;;5012929;28;20021;-49
2023/05/14 01:36:05;;;;;;;4.70;3.70;;;24.80;99.90;;;;;;5013066;28;20057;-49
2023/05/14 01:38:33;;;;;;;8.73;4.47;;;24.80;99.90;;;;;;5013035;28;20382;-49
2023/05/14 01:40:59;;;;;;;;;;;24.70;99.90;;;;;;5013038;28;20033;-48
2023/05/14 01:43:25;;;;;;;6.15;2.92;;;24.80;99.90;;;;;;5012990;28;19901;-49
2023/05/14 01:45:50;;;;;;;4.13;3.30;;;24.70;99.90;;;;;;5012650;28;20041;-48
2023/05/14 01:48:16;;;;;;;6.80;3.28;;;24.70;99.90;;;;;;5012771;28;20116;-47
2023/05/14 01:50:42;;;;;;;4.55;3.00;;;24.70;99.90;;;;;;5012711;28;20065;-47
2023/05/14 01:53:08;;;;;;;4.72;3.05;;;24.70;99.90;;;;;;5012612;28;20022;-48
2023/05/14 01:55:33;;;;;;;5.63;3.65;;;24.70;99.90;;;;;;5012956;28;20105;-47
2023/05/14 01:57:59;;;;;;;5.68;3.20;;;24.70;99.90;;;;;;5012634;28;20022;-48
2023/05/14 02:00:25;;;;;;;5.18;3.50;;;24.70;99.90;;;;;;5013037;28;20029;-48
2023/05/14 02:02:51;;;;;;;5.65;2.88;;;24.70;99.90;;;;;;5012589;28;20057;-48
2023/05/14 02:05:17;;;;;;;5.82;3.45;;;24.70;99.90;;;;;;5012473;28;20022;-48
2023/05/14 02:07:43;;;;;;;4.13;3.20;;;24.70;99.90;;;;;;5012502;28;20392;-48
2023/05/14 02:10:10;;;;;;;4.75;3.15;;;24.70;99.90;;;;;;5012637;28;20402;-49
2023/05/14 02:12:35;;;;;;;4.97;2.70;;;24.70;99.90;;;;;;5012835;28;20030;-49
2023/05/14 02:15:05;;;;;;;4.20;2.92;;;24.70;99.90;;;;;;5006834;28;20026;-49
2023/05/14 02:17:30;;;;;;;4.38;2.97;;;24.70;99.90;;;;;;4993456;28;20081;-49
2023/05/14 02:19:56;;;;;;;4.82;3.13;;;24.70;99.90;;;;;;5009542;28;20026;-49
2023/05/14 02:22:22;;;;;;;4.90;3.15;;;24.70;99.90;;;;;;5012017;28;20141;-49
2023/05/14 02:24:48;;;;;;;5.97;3.15;;;24.70;99.90;;;;;;5012120;28;20066;-49
2023/05/14 02:27:14;;;;;;;4.13;2.90;;;24.70;99.90;;;;;;5012126;28;20117;-51
2023/05/14 02:29:40;;;;;;;3.83;2.88;;;24.70;99.90;;;;;;5011964;28;20137;-50
2023/05/14 02:32:06;;;;;;;3.78;2.38;;;24.70;99.90;;;;;;5012163;28;20022;-49
2023/05/14 02:34:33;;;;;;;5.65;2.60;;;24.70;99.90;;;;;;5011961;28;20096;-49
2023/05/14 02:36:59;;;;;;;4.68;2.83;;;24.70;99.90;;;;;;5011904;28;20070;-49
2023/05/14 02:39:25;;;;;;;3.47;2.47;;;24.70;99.90;;;;;;5012129;28;20037;-49
2023/05/14 02:41:50;;;;;;;4.35;2.95;;;24.70;99.90;;;;;;5011862;28;20033;-49
2023/05/14 02:44:16;;;;;;;3.85;2.28;;;24.60;99.90;;;;;;5011951;28;20034;-49
2023/05/14 02:46:42;;;;;;;4.00;2.70;;;24.70;99.90;;;;;;5011607;28;20038;-49
2023/05/14 02:49:08;;;;;;;5.45;3.03;;;24.60;99.90;;;;;;5012193;28;20041;-49
2023/05/14 02:51:34;;;;;;;4.38;2.63;;;24.60;99.90;;;;;;5011819;28;20034;-49
2023/05/14 02:54:00;;;;;;;4.25;2.60;;;24.60;99.90;;;;;;5014123;28;20018;-49
2023/05/14 02:56:26;;;;;;;3.20;2.47;;;24.60;99.90;;;;;;5015690;28;20466;-49
2023/05/14 02:58:51;;;;;;;6.22;3.35;;;24.60;99.90;;;;;;5015277;28;20026;-49
2023/05/14 03:01:17;;;;;;;4.05;2.78;;;24.60;99.90;;;;;;5041857;22;20061;-52
2023/05/14 03:03:43;;;;;;;4.57;2.85;;;24.60;99.90;;;;;;5053493;28;20483;-55
2023/05/14 03:06:09;;;;;;;3.85;2.50;;;24.60;99.90;;;;;;5055107;28;20068;-56
2023/05/14 03:08:35;;;;;;;4.72;2.83;;;24.60;99.90;;;;;;5054668;28;20025;-55
2023/05/14 03:11:01;;;;;;;4.18;2.70;;;24.60;99.90;;;;;;5053666;28;20025;-55
2023/05/14 03:13:27;;;;;;;5.60;2.75;;;24.60;99.90;;;;;;5053664;28;20033;-55
2023/05/14 03:15:53;;;;;;;7.25;2.70;;;24.60;99.90;;;;;;5054843;28;20159;-55
2023/05/14 03:18:20;;;;;;;4.70;3.13;;;24.50;99.90;;;;;;5054959;28;20028;-56
2023/05/14 03:20:46;;;;;;;5.43;3.00;;;24.50;99.90;;;;;;5054785;28;20106;-55
2023/05/14 03:23:12;;;;;;;4.90;3.58;;;24.60;99.90;;;;;;5053665;28;20060;-55
2023/05/14 03:25:37;;;;;;;3.88;2.30;;;24.50;99.90;;;;;;5055076;28;20551;-55
2023/05/14 03:28:03;;;;;;;3.55;2.45;;;24.50;99.90;;;;;;5054596;28;20111;-55
2023/05/14 03:30:29;;;;;;;4.72;3.00;;;24.50;99.90;;;;;;5054819;28;20166;-55
2023/05/14 03:32:55;;;;;;;3.10;2.30;;;24.50;99.90;;;;;;5054654;28;20036;-55
2023/05/14 03:35:21;;;;;;;3.88;2.45;;;24.50;99.90;;;;;;5054532;28;20036;-55
2023/05/14 03:37:47;;;;;;;4.15;2.60;;;24.50;99.90;;;;;;5054322;28;20021;-55
2023/05/14 03:40:12;;;;;;;3.15;2.38;;;24.50;99.90;;;;;;5054802;28;20057;-55
2023/05/14 03:42:38;;;;;;;3.85;2.72;;;24.50;99.90;;;;;;5054850;28;20021;-55
2023/05/14 03:45:05;;;;;;;3.05;2.13;;;24.50;99.90;;;;;;5054184;28;20033;-55
2023/05/14 03:47:30;;;;;;;3.95;2.63;;;24.50;99.90;;;;;;5054282;28;20400;-55
2023/05/14 03:49:56;;;;;;;4.88;2.70;;;24.50;99.90;;;;;;5053990;28;20079;-55
2023/05/14 03:52:22;;;;;;;5.25;2.92;;;24.50;99.90;;;;;;5054267;28;20025;-55
2023/05/14 03:54:48;;;;;;;5.88;2.72;;;24.50;99.90;;;;;;5054219;28;20025;-55
2023/05/14 03:57:13;;;;;;;4.28;2.90;;;24.50;99.90;;;;;;5054407;28;20048;-55
2023/05/14 03:59:39;;;;;;;4.05;2.95;;;24.50;99.90;;;;;;5052865;28;20412;-55
2023/05/14 04:02:05;;;;;;;4.35;2.38;;;24.50;99.90;;;;;;5054197;28;20053;-55
2023/05/14 04:04:31;;;;;;;3.35;2.42;;;24.50;99.90;;;;;;5053485;28;20425;-52
2023/05/14 04:06:57;;;;;;;5.38;2.70;;;24.50;99.90;;;;;;5054069;28;20111;-54
2023/05/14 04:09:22;;;;;;;3.67;2.70;;;24.50;99.90;;;;;;5053867;28;20465;-53
2023/05/14 04:11:48;;;;;;;3.78;2.33;;;24.40;99.90;;;;;;5053841;28;20028;-55
2023/05/14 04:14:14;;;;;;;4.57;2.70;;;24.50;99.90;;;;;;5053986;28;20033;-53
2023/05/14 04:16:40;;;;;;;3.88;2.28;;;24.40;99.90;;;;;;5053755;28;20021;-53
2023/05/14 04:19:05;;;;;;;3.10;2.58;;;24.40;99.90;;;;;;5053626;28;20112;-53
2023/05/14 04:21:31;;;;;;;3.35;2.40;;;24.40;99.90;;;;;;5053343;28;20102;-52
2023/05/14 04:23:57;;;;;;;4.13;2.33;;;24.40;99.90;;;;;;5053721;28;20110;-53
2023/05/14 04:26:23;;;;;;;2.75;2.13;;;24.40;99.90;;;;;;5053362;28;20037;-53
2023/05/14 04:28:48;;;;;;;5.65;2.58;;;24.40;99.90;;;;;;5053510;28;20017;-53
2023/05/14 04:31:15;;;;;;;4.30;2.72;;;24.40;99.90;;;;;;5053689;28;20021;-54
2023/05/14 04:33:41;;;;;;;4.40;2.60;;;24.40;99.90;;;;;;5053394;28;20048;-53
2023/05/14 04:36:07;;;;;;;3.17;1.98;;;24.30;99.90;;;;;;5053328;28;20105;-53
2023/05/14 04:38:33;;;;;;;3.38;2.42;;;24.30;99.90;;;;;;5053367;28;20020;-53
2023/05/14 04:40:59;;;;;;;4.40;1.88;;;24.30;99.90;;;;;;5053211;28;20116;-54
2023/05/14 04:43:24;;;;;;;3.03;2.25;;;24.30;99.90;;;;;;5053205;28;20088;-54
2023/05/14 04:45:51;;;;;;;4.82;2.03;;;24.30;99.90;;;;;;5052964;28;20053;-53
2023/05/14 04:48:17;;;;;;;4.05;1.98;;;24.30;99.90;;;;;;5052723;28;20036;-53
2023/05/14 04:50:43;;;;;;;3.92;2.38;;;24.30;99.90;;;;;;5053366;28;20017;-53
2023/05/14 04:53:09;;;;;;;4.43;2.78;;;24.30;99.90;;;;;;5053027;28;20017;-53
2023/05/14 04:55:35;;;;;;;3.28;2.20;;;24.30;99.90;;;;;;5052705;28;20498;-53
2023/05/14 04:58:01;;;;;;;2.88;2.13;;;24.30;99.90;;;;;;5052559;28;20053;-53
2023/05/14 05:00:27;;;;;;;3.25;2.13;;;24.30;99.90;;;;;;5052821;28;20103;-54
2023/05/14 05:02:53;;;;;;;2.72;1.83;;;24.30;99.90;;;;;;5052881;28;20079;-53
2023/05/14 05:05:19;;;;;;;3.25;2.08;;;24.30;99.90;;;;;;5051552;28;20425;-53
2023/05/14 05:07:45;;;;;;;2.85;1.98;;;24.30;99.90;;;;;;5052979;28;20100;-53
2023/05/14 05:10:11;;;;;;;4.00;2.13;;;24.30;99.90;;;;;;5052698;28;20112;-53
2023/05/14 05:12:37;;;;;;;2.42;2.00;;;24.30;99.90;;;;;;5052785;28;20021;-53
2023/05/14 05:15:03;;;;;;;2.70;1.85;;;24.30;99.90;;;;;;5052114;28;20022;-53
2023/05/14 05:17:29;;;;;;;3.70;1.90;;;24.30;99.90;;;;;;5052587;28;20087;-53
2023/05/14 05:19:55;;;;;;;3.72;1.92;;;24.30;99.90;;;;;;5052588;28;20408;-53
2023/05/14 05:22:22;;;;;;;3.53;2.35;;;24.30;99.90;;;;;;5052594;28;20025;-53
2023/05/14 05:24:47;;;;;;;3.78;2.05;;;24.30;99.90;;;;;;5052395;28;20035;-54
2023/05/14 05:27:13;;;;;;;3.90;2.55;;;24.20;99.90;;;;;;5052183;28;20029;-56
2023/05/14 05:29:39;;;;;;;3.38;1.83;;;24.30;99.90;;;;;;5052220;28;20021;-56
2023/05/14 05:32:06;;;;;;;2.65;1.80;;;24.30;99.90;;;;;;5052433;28;20021;-55
2023/05/14 05:34:32;;;;;;;2.67;1.98;;;24.20;99.90;;;;;;5052148;28;20334;-56
2023/05/14 05:36:57;;;;;;;2.72;1.90;;;24.20;99.90;;;;;;5052270;28;20056;-54
2023/05/14 05:39:23;;;;;;;2.83;1.90;;;24.20;99.90;;;;;;5052032;28;20076;-54
2023/05/14 05:41:49;;;;;;;3.15;1.80;;;24.20;99.90;;;;;;5052390;28;20099;-55
2023/05/14 05:44:15;;;;;;;2.58;1.88;;;24.20;99.90;;;;;;5052141;28;20207;-55
2023/05/14 05:46:41;;;;;;;2.55;1.90;;;24.20;99.90;;;;;;5052068;28;20102;-55
2023/05/14 05:49:06;;;;;;;2.72;1.77;;;24.20;99.90;;;;;;5051877;28;20049;-54
2023/05/14 05:51:32;;;;;;;4.10;2.25;;;24.20;99.90;;;;;;5052035;28;20439;-55
2023/05/14 05:53:58;;;;;;;3.42;2.22;;;24.20;99.90;;;;;;5052178;28;20381;-55
2023/05/14 05:56:23;;;;;;;2.92;1.70;;;24.20;99.90;;;;;;5051932;28;20032;-55
2023/05/14 05:58:49;;;;;;;2.47;1.60;;;24.20;99.90;;;;;;5052301;28;20106;-55
2023/05/14 06:01:15;;;;;;;2.95;2.05;;;24.20;99.90;;;;;;5051743;28;20182;-54
2023/05/14 06:03:41;;;;;;;3.13;1.70;;;24.20;99.90;;;;;;5052020;28;20033;-54
2023/05/14 06:06:07;;;;;;;3.90;1.90;;;24.20;99.90;;;;;;5033888;28;20060;-55
2023/05/14 06:08:32;;;;;;;2.58;2.00;;;24.20;99.90;;;;;;5051971;28;20051;-55
2023/05/14 06:10:58;;;;;;;3.72;1.63;;;24.20;99.90;;;;;;5051861;28;20032;-55
2023/05/14 06:13:24;;;;;;;3.15;1.92;;;24.20;99.90;;;;;;5052007;28;20025;-55
2023/05/14 06:15:50;;;;;;;3.80;1.73;;;24.20;99.90;;;;;;5051716;28;20036;-55
2023/05/14 06:18:15;;;;;;;2.95;1.80;;;24.20;99.90;;;;;;5051969;28;20482;-55
2023/05/14 06:20:41;;;;;;;3.88;1.83;;;24.20;99.90;;;;;;5051898;28;20048;-55
2023/05/14 06:23:07;;;;;;;3.20;1.77;;;24.10;99.90;;;;;;5049975;28;20021;-55
2023/05/14 06:25:33;;;;;;;2.60;1.80;;;24.10;99.90;;;;;;5050673;28;20108;-55
2023/05/14 06:27:59;;;;;;;4.05;2.00;;;24.10;99.90;;;;;;5053769;28;20039;-55
2023/05/14 06:30:25;;;;;;;2.22;1.63;;;24.10;99.90;;;;;;5055788;28;20021;-55
2023/05/14 06:32:51;;;;;;;2.53;1.95;;;24.10;99.90;;;;;;5055692;28;20079;-55
2023/05/14 06:35:18;;;;;;;2.75;1.80;;;24.10;99.90;;;;;;5055739;28;20018;-55
2023/05/14 06:37:44;;;;;;;4.07;1.50;;;24.10;99.90;;;;;;5055273;28;20021;-55
2023/05/14 06:40:11;;;;;;;3.22;1.70;;;24.10;99.90;;;;;;5055629;28;20025;-54
2023/05/14 06:42:36;;;;;;;2.13;1.70;;;24.10;99.90;;;;;;5055651;28;20075;-54
2023/05/14 06:45:03;;;;;;;2.22;1.70;;;24.20;99.90;;;;;;5055449;28;20021;-55
2023/05/14 06:47:29;;;;;;;3.00;1.42;;;24.20;99.90;;;;;;5055437;28;20029;-55
2023/05/14 06:49:57;;;;;;;2.50;1.55;;;24.20;99.90;;;;;;5054962;28;20021;-55
2023/05/14 06:52:23;;;;;;;2.85;1.38;;;24.20;99.90;;;;;;5055309;28;20021;-55
2023/05/14 06:54:49;;;;;;;2.03;1.58;;;24.20;99.90;;;;;;5055118;28;20021;-55
2023/05/14 06:57:15;;;;;;;3.22;1.77;;;24.20;99.90;;;;;;5055255;28;20066;-55
2023/05/14 06:59:40;;;;;;;3.00;1.73;;;24.20;99.90;;;;;;5054025;28;20025;-55
2023/05/14 07:02:06;;;;;;;2.72;1.70;;;24.20;99.90;;;;;;5055063;28;20048;-55
2023/05/14 07:04:32;;;;;;;3.20;1.80;;;24.20;99.90;;;;;;5054980;28;20025;-55
2023/05/14 07:06:58;;;;;;;3.67;1.73;;;24.20;99.90;;;;;;5053715;28;20033;-55
2023/05/14 07:09:24;;;;;;;2.55;1.83;;;24.20;99.90;;;;;;5054859;28;20029;-56
2023/05/14 07:11:49;;;;;;;3.08;1.50;;;24.20;99.90;;;;;;5055204;28;20380;-55
2023/05/14 07:14:15;;;;;;;2.58;1.55;;;24.20;99.90;;;;;;5054930;28;20025;-54
2023/05/14 07:16:41;;;;;;;2.13;1.50;;;24.20;99.90;;;;;;5053182;28;20017;-54
2023/05/14 07:19:07;;;;;;;2.88;1.75;;;24.20;99.90;;;;;;5054876;28;20407;-55
2023/05/14 07:21:34;;;;;;;2.40;1.58;;;24.20;99.90;;;;;;5053298;28;20035;-55
2023/05/14 07:24:00;;;;;;;2.90;1.50;;;24.20;99.90;;;;;;5054904;28;20535;-55
2023/05/14 07:26:26;;;;;;;2.30;1.70;;;24.20;99.90;;;;;;5054436;28;20489;-55
2023/05/14 07:28:52;;;;;;;3.15;1.55;;;24.20;99.90;;;;;;5054834;28;20109;-55
2023/05/14 07:31:18;;;;;;;2.35;1.55;;;24.20;99.90;;;;;;5054644;28;20033;-55
2023/05/14 07:33:44;;;;;;;1.83;1.60;;;24.20;99.90;;;;;;5052805;28;20021;-55
2023/05/14 07:36:09;;;;;;;3.03;1.58;;;24.20;99.90;;;;;;5036592;28;20059;-55
2023/05/14 07:38:35;;;;;;;2.65;1.50;;;24.20;99.90;;;;;;5053763;28;20029;-54
2023/05/14 07:41:01;;;;;;;5.15;1.95;;;24.20;99.90;;;;;;5054479;28;20044;-55
2023/05/14 07:43:27;;;;;;;2.90;1.75;;;24.30;99.90;;;;;;5054606;28;20080;-54
2023/05/14 07:45:54;;;;;;;2.85;1.48;;;24.30;99.90;;;;;;5054375;28;20041;-55
2023/05/14 07:48:20;;;;;;;4.88;2.25;;;24.30;99.90;;;;;;5053934;28;20021;-54
2023/05/14 07:50:46;;;;;;;3.72;1.75;;;24.30;99.90;;;;;;5054254;28;20036;-54
2023/05/14 07:53:12;;;;;;;2.97;1.77;;;24.30;99.90;;;;;;5053842;28;20527;-53
2023/05/14 07:55:38;;;;;;;2.15;1.80;;;24.30;99.90;;;;;;5054122;28;20025;-53
2023/05/14 07:58:04;;;;;;;2.78;1.60;;;24.30;99.90;;;;;;5053728;28;20449;-53
2023/05/14 08:00:30;;;;;;;3.60;2.10;;;24.30;99.90;;;;;;5054393;28;20469;-54
2023/05/14 08:02:56;;;;;;;2.83;1.77;;;24.30;99.90;;;;;;5054275;28;20037;-55
2023/05/14 08:05:21;;;;;;;2.28;1.30;;;24.30;99.90;;;;;;5054005;28;20101;-55
2023/05/14 08:07:47;;;;;;;2.75;1.70;;;24.30;99.90;;;;;;5053675;28;20049;-54
2023/05/14 08:10:13;;;;;;;3.20;1.88;;;24.30;99.90;;;;;;5053741;28;20071;-54
2023/05/14 08:12:39;;;;;;;3.92;1.95;;;24.30;99.90;;;;;;5053993;28;20070;-54
2023/05/14 08:15:06;;;;;;;3.55;2.03;;;24.30;99.90;;;;;;5053033;28;20084;-54
2023/05/14 08:17:32;;;;;;;2.70;1.83;;;24.30;99.90;;;;;;5053866;28;20040;-55
2023/05/14 08:19:58;;;;;;;3.20;1.88;;;24.30;99.90;;;;;;5053757;28;20033;-55
2023/05/14 08:22:24;;;;;;;3.70;2.05;;;24.30;99.90;;;;;;5053745;28;20461;-54
2023/05/14 08:24:49;;;;;;;3.72;1.77;;;24.30;99.90;;;;;;5053254;28;20071;-55
2023/05/14 08:27:16;;;;;;;2.97;2.13;;;24.30;99.90;;;;;;5053524;28;20578;-55
2023/05/14 08:29:41;;;;;;;2.83;1.75;;;24.30;99.90;;;;;;5052093;28;20052;-55
2023/05/14 08:32:08;;;;;;;2.90;1.92;;;24.30;99.90;;;;;;5053439;28;20492;-55
2023/05/14 08:34:34;;;;;;;2.65;1.70;;;24.30;99.90;;;;;;5052176;28;20493;-56
2023/05/14 08:37:00;;;;;;;3.50;2.08;;;24.30;99.90;;;;;;5053357;28;20457;-56
2023/05/14 08:39:26;;;;;;;3.88;1.95;;;24.30;99.90;;;;;;5053223;28;20402;-56
2023/05/14 08:41:53;;;;;;;2.42;1.60;;;24.40;99.90;;;;;;5053338;28;20023;-55
2023/05/14 08:44:20;;;;;;;2.75;1.95;;;24.30;99.90;;;;;;5053039;28;20094;-55
2023/05/14 08:46:48;;;;;;;2.78;1.80;;;24.40;99.90;;;;;;5053186;28;20509;-55
2023/05/14 08:49:29;;;;;;;2.80;1.77;;;24.40;99.90;;;;;;5050249;28;20028;-55
2023/05/14 08:51:56;;;;;;;3.33;2.00;;;24.40;99.90;;;;;;5052628;28;20021;-55
2023/05/14 08:54:24;;;;;;;3.10;1.70;;;24.40;99.90;;;;;;5051753;28;20021;-55
2023/05/14 08:56:51;;;;;;;3.15;1.95;;;24.40;99.90;;;;;;5052906;28;20017;-55
2023/05/14 08:59:17;;;;;;;3.00;2.00;;;24.40;99.90;;;;;;5053086;28;20096;-56
2023/05/14 09:01:49;;;;;;;5.57;2.22;;;24.40;99.90;;;;;;5052494;28;20131;-58
2023/05/14 09:04:19;;;;;;;3.70;1.88;;;24.40;99.90;;;;;;5051805;28;20024;-55
2023/05/14 09:06:48;;;;;;;3.42;1.65;;;24.40;99.90;;;;;;5052650;28;20380;-55
2023/05/14 09:09:15;;;;;;;4.88;1.60;;;24.40;99.90;;;;;;5052764;28;20468;-55
2023/05/14 09:11:50;;;;;;;3.13;1.40;;;24.40;99.90;;;;;;5052588;28;20040;-56
2023/05/14 09:14:17;;;;;;;4.13;1.63;;;24.40;99.90;;;;;;5052664;28;20070;-55
2023/05/14 09:16:45;;;;;;;3.83;1.92;;;24.40;99.90;;;;;;5052640;28;20028;-55
2023/05/14 09:19:12;;;;;;;4.72;1.45;;;24.40;99.90;;;;;;5052387;28;20017;-56
2023/05/14 09:21:39;;;;;;;3.55;1.30;;;24.40;99.90;;;;;;5052651;28;20074;-55
2023/05/14 09:24:05;;;;;;;5.07;2.00;;;24.40;99.90;;;;;;5051343;28;20365;-55
2023/05/14 09:26:32;;;;;;;3.17;1.48;;;24.50;99.90;;;;;;5052565;28;20567;-56
2023/05/14 09:29:02;;;;;;;3.88;1.50;;;24.40;99.90;;;;;;5052431;28;20075;-53
2023/05/14 09:31:33;;;;;;;3.70;1.42;;;24.40;99.90;;;;;;5052313;28;20489;-54
2023/05/14 09:33:59;;;;;;;6.32;1.67;;;24.40;99.90;;;;;;5052362;28;20025;-53
2023/05/14 09:36:26;;;;;;;4.00;1.30;;;24.40;99.90;;;;;;5052269;28;20055;-53
2023/05/14 09:38:56;;;;;;;5.32;2.05;;;24.40;99.90;;;;;;5052266;28;20063;-53
2023/05/14 09:41:23;;;;;;;3.53;1.77;;;24.40;99.90;;;;;;5052254;28;20016;-54
2023/05/14 09:43:50;;;;;;;4.18;1.33;;;24.50;99.90;;;;;;5052203;28;20108;-53
2023/05/14 09:46:16;;;;;;;3.88;1.77;;;24.50;99.90;;;;;;5052122;28;20124;-52
2023/05/14 09:48:42;;;;;;;3.05;1.52;;;24.50;99.90;;;;;;5052134;28;20561;-53
2023/05/14 09:51:12;;;;;;;6.15;1.92;;;24.50;99.90;;;;;;5052218;28;20021;-54
2023/05/14 09:53:40;;;;;;;3.15;1.65;;;24.50;99.90;;;;;;5052097;28;20021;-54
2023/05/14 09:56:06;;;;;;;5.80;2.20;;;24.50;99.90;;;;;;5052388;28;20021;-52
2023/05/14 09:58:31;;;;;;;9.60;3.95;;;24.50;99.90;;;;;;5051715;28;20158;-52
2023/05/14 10:00:57;;;;;;;9.68;3.08;;;24.50;99.90;;;;;;5044924;28;20069;-54
2023/05/14 10:03:28;;;;;;;7.18;3.63;;;24.50;99.90;;;;;;5038323;28;20131;-53
2023/05/14 10:05:58;;;;;;;7.00;3.20;;;24.40;99.90;;;;;;5032991;28;20509;-53
2023/05/14 10:08:29;;;;;;;7.60;2.80;;;24.50;99.90;;;;;;5034193;28;20026;-53
2023/05/14 10:10:58;;;;;;;3.85;3.15;;;24.50;99.90;;;;;;5033794;28;20028;-53
2023/05/14 10:13:30;;;;;;;3.80;2.80;;;24.50;99.90;;;;;;5034432;28;20078;-53
2023/05/14 10:16:20;;;;;;;4.78;2.80;;;24.50;99.90;;;;;;5033840;28;20500;-54
2023/05/14 10:18:51;;;;;;;4.78;2.67;;;24.50;99.90;;;;;;5037149;28;20046;-51
2023/05/14 10:21:22;;;;;;;5.20;2.60;;;24.50;99.90;;;;;;5037519;28;20017;-52
2023/05/14 10:23:50;;;;;;;4.63;2.58;;;24.50;99.90;;;;;;5033793;28;20032;-52
2023/05/14 10:26:15;;;;;;;6.65;2.63;;;24.50;99.90;;;;;;5031587;28;20489;-52
2023/05/14 10:28:42;;;;;;;4.65;3.03;;;24.50;99.90;;;;;;5035997;28;20029;-51
2023/05/14 10:31:09;;;;;;;4.65;2.22;;;24.50;99.90;;;;;;5040460;28;20033;-51
2023/05/14 10:33:49;;;;;;;4.23;2.70;;;24.50;99.90;;;;;;5035109;28;20013;-52
2023/05/14 10:36:16;;;;;;;5.05;2.65;;;24.50;99.90;;;;;;5032752;28;20029;-52
2023/05/14 10:38:42;;;;;;;18.63;3.38;;;24.50;99.90;;;;;;5044360;28;20397;-52
2023/05/14 10:41:16;;;;;;;21.88;3.63;;;24.50;99.90;;;;;;5034197;28;20038;-52
2023/05/14 10:43:43;;;;;;;20.15;3.40;;;24.50;99.90;;;;;;5032621;28;20116;-52
2023/05/14 10:46:10;;;;;;;9.65;2.40;;;24.50;99.90;;;;;;5033098;28;20108;-52
2023/05/14 10:48:39;;;;;;;10.25;1.98;;;24.50;99.90;;;;;;5034319;28;20041;-52
2023/05/14 10:51:08;;;;;;;6.35;1.23;;;24.50;99.90;;;;;;5034472;28;20026;-52
2023/05/14 10:53:41;;;;;;;3.63;1.17;;;24.50;99.90;;;;;;5031515;28;20076;-52
2023/05/14 10:56:12;;;;;;;4.68;1.60;;;24.40;99.90;;;;;;5033014;28;20025;-52
2023/05/14 10:58:43;;;;;;;4.85;1.20;;;24.40;99.90;;;;;;5035711;28;20432;-52
2023/05/14 11:01:11;;;;;;;5.20;1.80;;;24.40;99.90;;;;;;5034136;28;20067;-51
2023/05/14 11:03:41;;;;;;;15.38;4.13;;;24.40;99.90;;;;;;5040055;28;20032;-52
2023/05/14 11:06:09;;;;;;;7.18;2.15;;;24.30;99.90;;;;;;5032666;28;20033;-52
2023/05/14 11:08:36;;;;;;;4.63;1.52;;;24.30;99.90;;;;;;5040203;28;20021;-52
2023/05/14 11:11:02;;;;;;;5.32;1.65;;;24.30;99.90;;;;;;5044098;28;20040;-52
2023/05/14 11:13:27;;;;;;;6.25;1.83;;;24.30;99.90;;;;;;5044779;28;20051;-52
2023/05/14 11:15:54;;;;;;;8.13;2.45;;;24.30;99.90;;;;;;5038037;28;20446;-52
2023/05/14 11:18:37;;;;;;;7.27;2.70;;;24.20;99.90;;;;;;5036146;28;20032;-51
2023/05/14 11:21:03;;;;;;;11.98;6.35;;;24.20;99.90;;;;;;5036315;28;20746;-52
2023/05/14 11:23:29;;;;;;;14.43;6.65;;;24.10;99.90;;;;;;5039652;28;20020;-51
2023/05/14 11:25:55;;;;;;;10.05;5.50;;;24.10;99.90;;;;;;5040317;28;20037;-50
2023/05/14 11:28:22;;;;;;;8.97;4.60;;;24.10;99.90;;;;;;5041547;28;20026;-50
2023/05/14 11:30:52;;;;;;;5.90;3.45;;;24.00;99.90;;;;;;5036061;28;20045;-50
2023/05/14 11:33:19;;;;;;;8.05;3.53;;;24.00;99.90;;;;;;5046614;28;20072;-50
2023/05/14 11:35:46;;;;;;;7.10;1.97;;;23.90;99.90;;;;;;5039191;28;20025;-51
2023/05/14 11:38:20;;;;;;;8.18;3.97;;;23.90;99.90;;;;;;5040853;28;20030;-52
2023/05/14 11:40:56;;;;;;;6.28;3.25;;;23.90;99.90;;;;;;5037469;28;20033;-52
2023/05/14 11:43:27;;;;;;;5.93;2.35;;;23.90;99.90;;;;;;5045431;28;20701;-51
2023/05/14 11:45:53;;;;;;;7.22;2.85;;;23.90;99.90;;;;;;5035577;28;20408;-51
2023/05/14 11:48:20;;;;;;;21.70;12.50;;;23.80;99.90;;;;;;5041260;28;20481;-52
2023/05/14 11:50:50;;;;;;;30.02;16.48;;;23.80;99.90;;;;;;5038022;28;20036;-52
2023/05/14 11:53:25;;;;;;;34.80;22.45;;;23.80;99.90;;;;;;5039162;28;20025;-52
2023/05/14 11:55:53;;;;;;;47.42;33.88;;;23.80;99.90;;;;;;5044946;28;20440;-52
2023/05/14 11:58:19;;;;;;;34.70;25.73;;;23.70;99.90;;;;;;5036004;28;20025;-52
2023/05/14 12:00:48;;;;;;;34.03;17.67;;;23.70;99.90;;;;;;5045501;28;20048;-52
2023/05/14 12:03:14;;;;;;;16.65;8.70;;;23.70;99.90;;;;;;5038941;28;20037;-53
2023/05/14 12:05:41;;;;;;;15.93;10.48;;;23.70;99.90;;;;;;5036585;28;20041;-53
2023/05/14 12:08:26;;;;;;;17.90;8.97;;;23.70;99.90;;;;;;5039113;28;20440;-51
2023/05/14 12:10:52;;;;;;;18.77;12.18;;;23.70;99.90;;;;;;5041632;28;20508;-53
2023/05/14 12:13:19;;;;;;;24.00;17.05;;;23.70;99.90;;;;;;5035668;28;20028;-52
2023/05/14 12:15:55;;;;;;;21.48;13.48;;;23.70;99.90;;;;;;5041946;28;20035;-52
2023/05/14 12:18:24;;;;;;;24.70;15.50;;;23.70;99.90;;;;;;5036194;28;20611;-52
2023/05/14 12:20:50;;;;;;;20.40;11.10;;;23.70;99.90;;;;;;5045364;28;20783;-53
2023/05/14 12:23:23;;;;;;;15.52;8.88;;;23.70;99.90;;;;;;5038409;28;20033;-52
2023/05/14 12:25:52;;;;;;;9.43;5.63;;;23.70;99.90;;;;;;5034403;28;20039;-52
2023/05/14 12:28:18;;;;;;;12.90;4.25;;;23.70;99.90;;;;;;5036840;28;20100;-52
2023/05/14 12:30:46;;;;;;;10.25;4.53;;;23.70;99.90;;;;;;5034535;28;20460;-52
2023/05/14 12:33:13;;;;;;;15.07;5.70;;;23.70;99.90;;;;;;5043198;28;20029;-53
2023/05/14 12:35:39;;;;;;;15.07;7.13;;;23.70;99.90;;;;;;5041881;28;20036;-52
2023/05/14 12:38:05;;;;;;;14.13;9.85;;;23.70;99.90;;;;;;5037981;28;20025;-52
2023/05/14 12:40:31;;;;;;;13.88;6.22;;;23.70;99.90;;;;;;5044550;28;20027;-52
2023/05/14 12:42:56;;;;;;;13.48;6.10;;;23.70;99.90;;;;;;5032748;28;20389;-52
2023/05/14 12:45:23;;;;;;;12.45;5.50;;;23.70;99.90;;;;;;5041112;28;20036;-52